sensor_id;sensor_type;location;lat;lon;timestamp;temperature;humidity
34989;DHT22;21192;40.182;44.516;2024-03-08T00:00:15;9.10;98.20
34989;DHT22;21192;40.182;44.516;2024-03-08T00:02:47;9.10;98.10
34989;DHT22;21192;40.182;44.516;2024-03-08T00:05:13;9.20;98.10
34989;DHT22;21192;40.182;44.516;2024-03-08T00:07:40;9.20;98.00
34989;DHT22;21192;40.182;44.516;2024-03-08T00:10:08;9.20;97.90
34989;DHT22;21192;40.182;44.516;2024-03-08T00:12:38;9.20;98.00
34989;DHT22;21192;40.182;44.516;2024-03-08T00:15:04;9.20;98.10
34989;DHT22;21192;40.182;44.516;2024-03-08T00:17:32;9.20;98.00
34989;DHT22;21192;40.182;44.516;2024-03-08T00:19:57;9.10;98.10
34989;DHT22;21192;40.182;44.516;2024-03-08T00:22:23;9.00;98.30
34989;DHT22;21192;40.182;44.516;2024-03-08T00:24:49;9.00;98.20
34989;DHT22;21192;40.182;44.516;2024-03-08T00:27:16;9.00;98.40
34989;DHT22;21192;40.182;44.516;2024-03-08T00:29:42;9.00;98.30
34989;DHT22;21192;40.182;44.516;2024-03-08T00:32:08;9.00;98.20
34989;DHT22;21192;40.182;44.516;2024-03-08T00:34:37;9.00;98.20
34989;DHT22;21192;40.182;44.516;2024-03-08T00:37:04;8.90;98.30
34989;DHT22;21192;40.182;44.516;2024-03-08T00:39:30;8.90;98.40
34989;DHT22;21192;40.182;44.516;2024-03-08T00:41:56;8.90;98.20
34989;DHT22;21192;40.182;44.516;2024-03-08T00:44:22;9.00;98.10
34989;DHT22;21192;40.182;44.516;2024-03-08T00:46:47;9.00;98.10
34989;DHT22;21192;40.182;44.516;2024-03-08T00:49:13;9.10;98.10
34989;DHT22;21192;40.182;44.516;2024-03-08T00:51:39;9.10;98.00
34989;DHT22;21192;40.182;44.516;2024-03-08T00:54:05;9.10;97.90
34989;DHT22;21192;40.182;44.516;2024-03-08T00:56:31;9.10;97.90
34989;DHT22;21192;40.182;44.516;2024-03-08T00:58:59;9.10;97.90
34989;DHT22;21192;40.182;44.516;2024-03-08T01:01:25;9.10;97.90
34989;DHT22;21192;40.182;44.516;2024-03-08T01:03:52;9.10;97.90
34989;DHT22;21192;40.182;44.516;2024-03-08T01:06:17;9.10;97.90
34989;DHT22;21192;40.182;44.516;2024-03-08T01:08:44;9.00;97.70
34989;DHT22;21192;40.182;44.516;2024-03-08T01:11:12;9.00;97.60
34989;DHT22;21192;40.182;44.516;2024-03-08T01:13:38;8.90;97.60
34989;DHT22;21192;40.182;44.516;2024-03-08T01:16:04;8.80;97.50
34989;DHT22;21192;40.182;44.516;2024-03-08T01:18:30;8.70;97.40
34989;DHT22;21192;40.182;44.516;2024-03-08T01:20:56;8.70;97.30
34989;DHT22;21192;40.182;44.516;2024-03-08T01:23:22;8.80;97.30
34989;DHT22;21192;40.182;44.516;2024-03-08T01:25:48;8.80;97.20
34989;DHT22;21192;40.182;44.516;2024-03-08T01:28:17;8.80;97.30
34989;DHT22;21192;40.182;44.516;2024-03-08T01:30:43;8.80;97.10
34989;DHT22;21192;40.182;44.516;2024-03-08T01:33:10;8.90;96.80
34989;DHT22;21192;40.182;44.516;2024-03-08T01:35:37;8.80;96.80
34989;DHT22;21192;40.182;44.516;2024-03-08T01:38:03;8.70;96.70
34989;DHT22;21192;40.182;44.516;2024-03-08T01:40:30;8.60;96.60
34989;DHT22;21192;40.182;44.516;2024-03-08T01:42:56;8.50;96.70
34989;DHT22;21192;40.182;44.516;2024-03-08T01:45:22;8.40;96.80
34989;DHT22;21192;40.182;44.516;2024-03-08T01:47:48;8.40;96.80
34989;DHT22;21192;40.182;44.516;2024-03-08T01:50:14;8.40;96.70
34989;DHT22;21192;40.182;44.516;2024-03-08T01:52:42;8.40;96.50
34989;DHT22;21192;40.182;44.516;2024-03-08T01:55:08;8.30;96.40
34989;DHT22;21192;40.182;44.516;2024-03-08T01:57:34;8.30;96.30
34989;DHT22;21192;40.182;44.516;2024-03-08T02:00:04;8.40;96.10
34989;DHT22;21192;40.182;44.516;2024-03-08T02:02:32;8.30;96.00
34989;DHT22;21192;40.182;44.516;2024-03-08T02:05:00;8.40;95.80
34989;DHT22;21192;40.182;44.516;2024-03-08T02:07:27;8.40;95.70
34989;DHT22;21192;40.182;44.516;2024-03-08T02:09:52;8.40;95.70
34989;DHT22;21192;40.182;44.516;2024-03-08T02:12:19;8.40;95.60
34989;DHT22;21192;40.182;44.516;2024-03-08T02:14:46;8.50;95.50
34989;DHT22;21192;40.182;44.516;2024-03-08T02:17:12;8.50;95.30
34989;DHT22;21192;40.182;44.516;2024-03-08T02:19:38;8.50;95.40
34989;DHT22;21192;40.182;44.516;2024-03-08T02:22:05;8.60;95.30
34989;DHT22;21192;40.182;44.516;2024-03-08T02:24:32;8.50;95.20
34989;DHT22;21192;40.182;44.516;2024-03-08T02:26:59;8.50;95.20
34989;DHT22;21192;40.182;44.516;2024-03-08T02:29:25;8.50;95.30
34989;DHT22;21192;40.182;44.516;2024-03-08T02:31:51;8.50;95.30
34989;DHT22;21192;40.182;44.516;2024-03-08T02:34:17;8.50;95.20
34989;DHT22;21192;40.182;44.516;2024-03-08T02:36:43;8.50;95.20
34989;DHT22;21192;40.182;44.516;2024-03-08T02:39:09;8.50;95.20
34989;DHT22;21192;40.182;44.516;2024-03-08T02:41:36;8.60;95.10
34989;DHT22;21192;40.182;44.516;2024-03-08T02:44:02;8.60;95.20
34989;DHT22;21192;40.182;44.516;2024-03-08T02:46:29;8.60;95.00
34989;DHT22;21192;40.182;44.516;2024-03-08T02:48:56;8.60;94.80
34989;DHT22;21192;40.182;44.516;2024-03-08T02:51:22;8.60;94.90
34989;DHT22;21192;40.182;44.516;2024-03-08T02:53:47;8.50;95.00
34989;DHT22;21192;40.182;44.516;2024-03-08T02:56:17;8.50;95.10
34989;DHT22;21192;40.182;44.516;2024-03-08T02:58:43;8.50;95.00
34989;DHT22;21192;40.182;44.516;2024-03-08T03:01:14;8.60;94.90
34989;DHT22;21192;40.182;44.516;2024-03-08T03:03:41;8.50;94.90
34989;DHT22;21192;40.182;44.516;2024-03-08T03:06:08;8.60;94.90
34989;DHT22;21192;40.182;44.516;2024-03-08T03:08:34;8.60;94.80
34989;DHT22;21192;40.182;44.516;2024-03-08T03:11:00;8.60;94.70
34989;DHT22;21192;40.182;44.516;2024-03-08T03:13:26;8.40;94.70
34989;DHT22;21192;40.182;44.516;2024-03-08T03:15:51;8.30;95.00
34989;DHT22;21192;40.182;44.516;2024-03-08T03:18:17;8.20;95.30
34989;DHT22;21192;40.182;44.516;2024-03-08T03:20:47;8.20;95.40
34989;DHT22;21192;40.182;44.516;2024-03-08T03:23:13;8.10;95.50
34989;DHT22;21192;40.182;44.516;2024-03-08T03:25:40;8.10;95.60
34989;DHT22;21192;40.182;44.516;2024-03-08T03:28:07;8.00;95.50
34989;DHT22;21192;40.182;44.516;2024-03-08T03:30:33;8.00;95.40
34989;DHT22;21192;40.182;44.516;2024-03-08T03:33:00;8.00;95.20
34989;DHT22;21192;40.182;44.516;2024-03-08T03:35:29;8.10;94.80
34989;DHT22;21192;40.182;44.516;2024-03-08T03:37:55;8.10;94.40
34989;DHT22;21192;40.182;44.516;2024-03-08T03:40:30;8.20;94.10
34989;DHT22;21192;40.182;44.516;2024-03-08T03:42:56;8.10;93.70
34989;DHT22;21192;40.182;44.516;2024-03-08T03:45:23;8.10;93.70
34989;DHT22;21192;40.182;44.516;2024-03-08T03:47:49;8.10;93.60
34989;DHT22;21192;40.182;44.516;2024-03-08T03:50:15;8.30;93.40
34989;DHT22;21192;40.182;44.516;2024-03-08T03:52:41;8.30;93.00
34989;DHT22;21192;40.182;44.516;2024-03-08T03:55:08;8.30;92.90
34989;DHT22;21192;40.182;44.516;2024-03-08T03:57:34;8.30;92.70
34989;DHT22;21192;40.182;44.516;2024-03-08T04:00:00;8.20;92.60
34989;DHT22;21192;40.182;44.516;2024-03-08T04:02:28;8.30;92.70
34989;DHT22;21192;40.182;44.516;2024-03-08T04:04:54;8.20;92.60
34989;DHT22;21192;40.182;44.516;2024-03-08T04:07:22;8.20;92.60
34989;DHT22;21192;40.182;44.516;2024-03-08T04:09:48;8.30;92.30
34989;DHT22;21192;40.182;44.516;2024-03-08T04:12:15;8.40;92.20
34989;DHT22;21192;40.182;44.516;2024-03-08T04:14:42;8.40;92.00
34989;DHT22;21192;40.182;44.516;2024-03-08T04:17:08;8.50;91.70
34989;DHT22;21192;40.182;44.516;2024-03-08T04:19:38;8.60;91.60
34989;DHT22;21192;40.182;44.516;2024-03-08T04:22:06;8.60;91.40
34989;DHT22;21192;40.182;44.516;2024-03-08T04:24:33;8.60;91.30
34989;DHT22;21192;40.182;44.516;2024-03-08T04:26:59;8.70;91.20
34989;DHT22;21192;40.182;44.516;2024-03-08T04:29:25;8.70;91.10
34989;DHT22;21192;40.182;44.516;2024-03-08T04:31:52;8.70;91.00
34989;DHT22;21192;40.182;44.516;2024-03-08T04:34:20;8.70;91.10
34989;DHT22;21192;40.182;44.516;2024-03-08T04:36:49;8.90;90.80
34989;DHT22;21192;40.182;44.516;2024-03-08T04:39:15;9.00;90.60
34989;DHT22;21192;40.182;44.516;2024-03-08T04:41:42;9.00;90.40
34989;DHT22;21192;40.182;44.516;2024-03-08T04:44:10;9.20;90.10
34989;DHT22;21192;40.182;44.516;2024-03-08T04:46:36;9.30;89.70
34989;DHT22;21192;40.182;44.516;2024-03-08T04:49:02;9.40;88.90
34989;DHT22;21192;40.182;44.516;2024-03-08T04:51:28;9.40;88.60
34989;DHT22;21192;40.182;44.516;2024-03-08T04:53:54;9.50;88.40
34989;DHT22;21192;40.182;44.516;2024-03-08T04:56:20;9.50;88.00
34989;DHT22;21192;40.182;44.516;2024-03-08T04:58:47;9.70;87.80
34989;DHT22;21192;40.182;44.516;2024-03-08T05:01:13;9.80;87.20
34989;DHT22;21192;40.182;44.516;2024-03-08T05:03:39;9.90;86.50
34989;DHT22;21192;40.182;44.516;2024-03-08T05:06:07;10.00;86.10
34989;DHT22;21192;40.182;44.516;2024-03-08T05:08:33;10.10;85.50
34989;DHT22;21192;40.182;44.516;2024-03-08T05:11:00;10.10;85.30
34989;DHT22;21192;40.182;44.516;2024-03-08T05:13:30;10.10;85.10
34989;DHT22;21192;40.182;44.516;2024-03-08T05:15:56;10.30;85.30
34989;DHT22;21192;40.182;44.516;2024-03-08T05:18:24;10.70;85.40
34989;DHT22;21192;40.182;44.516;2024-03-08T05:20:50;11.10;85.40
34989;DHT22;21192;40.182;44.516;2024-03-08T05:23:17;11.90;85.10
34989;DHT22;21192;40.182;44.516;2024-03-08T05:25:45;12.70;84.10
34989;DHT22;21192;40.182;44.516;2024-03-08T05:28:14;13.20;81.40
34989;DHT22;21192;40.182;44.516;2024-03-08T05:30:40;13.70;78.70
34989;DHT22;21192;40.182;44.516;2024-03-08T05:33:06;14.20;76.90
34989;DHT22;21192;40.182;44.516;2024-03-08T05:35:36;16.00;76.30
34989;DHT22;21192;40.182;44.516;2024-03-08T05:38:02;18.20;72.40
34989;DHT22;21192;40.182;44.516;2024-03-08T05:40:28;20.20;66.90
34989;DHT22;21192;40.182;44.516;2024-03-08T05:42:58;21.60;60.70
34989;DHT22;21192;40.182;44.516;2024-03-08T05:45:25;23.10;56.90
34989;DHT22;21192;40.182;44.516;2024-03-08T05:47:51;24.30;52.90
34989;DHT22;21192;40.182;44.516;2024-03-08T05:50:18;24.90;50.10
34989;DHT22;21192;40.182;44.516;2024-03-08T05:52:45;25.60;48.20
34989;DHT22;21192;40.182;44.516;2024-03-08T05:55:11;26.80;46.40
34989;DHT22;21192;40.182;44.516;2024-03-08T05:57:40;27.50;44.40
34989;DHT22;21192;40.182;44.516;2024-03-08T06:00:08;28.20;42.80
34989;DHT22;21192;40.182;44.516;2024-03-08T06:02:37;28.90;40.90
34989;DHT22;21192;40.182;44.516;2024-03-08T06:05:08;29.10;39.60
34989;DHT22;21192;40.182;44.516;2024-03-08T06:07:35;29.40;38.50
34989;DHT22;21192;40.182;44.516;2024-03-08T06:10:00;30.00;38.00
34989;DHT22;21192;40.182;44.516;2024-03-08T06:12:26;30.50;36.80
34989;DHT22;21192;40.182;44.516;2024-03-08T06:14:54;30.60;36.10
34989;DHT22;21192;40.182;44.516;2024-03-08T06:17:20;30.90;35.60
34989;DHT22;21192;40.182;44.516;2024-03-08T06:19:51;31.10;34.80
34989;DHT22;21192;40.182;44.516;2024-03-08T06:22:17;29.70;34.60
34989;DHT22;21192;40.182;44.516;2024-03-08T06:24:45;28.00;35.60
34989;DHT22;21192;40.182;44.516;2024-03-08T06:27:11;26.50;37.00
34989;DHT22;21192;40.182;44.516;2024-03-08T06:29:39;25.00;38.20
34989;DHT22;21192;40.182;44.516;2024-03-08T06:32:05;23.40;40.00
34989;DHT22;21192;40.182;44.516;2024-03-08T06:34:34;22.20;42.30
34989;DHT22;21192;40.182;44.516;2024-03-08T06:37:02;21.50;43.30
34989;DHT22;21192;40.182;44.516;2024-03-08T06:39:28;20.80;44.20
34989;DHT22;21192;40.182;44.516;2024-03-08T06:41:57;20.50;45.00
34989;DHT22;21192;40.182;44.516;2024-03-08T06:44:23;20.20;45.70
34989;DHT22;21192;40.182;44.516;2024-03-08T06:46:49;19.40;47.20
34989;DHT22;21192;40.182;44.516;2024-03-08T06:49:15;18.70;48.70
34989;DHT22;21192;40.182;44.516;2024-03-08T06:51:41;18.00;49.70
34989;DHT22;21192;40.182;44.516;2024-03-08T06:54:07;17.70;50.30
34989;DHT22;21192;40.182;44.516;2024-03-08T06:56:37;17.60;50.90
34989;DHT22;21192;40.182;44.516;2024-03-08T06:59:03;17.60;51.30
34989;DHT22;21192;40.182;44.516;2024-03-08T07:01:29;17.30;51.80
34989;DHT22;21192;40.182;44.516;2024-03-08T07:04:00;17.00;52.70
34989;DHT22;21192;40.182;44.516;2024-03-08T07:06:31;16.70;53.50
34989;DHT22;21192;40.182;44.516;2024-03-08T07:08:59;16.40;54.20
34989;DHT22;21192;40.182;44.516;2024-03-08T07:11:25;16.30;54.70
34989;DHT22;21192;40.182;44.516;2024-03-08T07:13:50;16.20;54.80
34989;DHT22;21192;40.182;44.516;2024-03-08T07:16:16;16.30;54.50
34989;DHT22;21192;40.182;44.516;2024-03-08T07:18:42;16.40;54.20
34989;DHT22;21192;40.182;44.516;2024-03-08T07:21:11;15.80;54.30
34989;DHT22;21192;40.182;44.516;2024-03-08T07:23:37;15.40;55.30
34989;DHT22;21192;40.182;44.516;2024-03-08T07:26:20;15.40;56.40
34989;DHT22;21192;40.182;44.516;2024-03-08T07:28:46;15.20;57.20
34989;DHT22;21192;40.182;44.516;2024-03-08T07:31:12;15.10;57.80
34989;DHT22;21192;40.182;44.516;2024-03-08T07:33:38;15.00;58.50
34989;DHT22;21192;40.182;44.516;2024-03-08T07:36:04;15.00;59.30
34989;DHT22;21192;40.182;44.516;2024-03-08T07:38:30;14.90;59.70
34989;DHT22;21192;40.182;44.516;2024-03-08T07:40:56;14.70;60.90
34989;DHT22;21192;40.182;44.516;2024-03-08T07:43:23;14.70;61.90
34989;DHT22;21192;40.182;44.516;2024-03-08T07:45:49;14.50;62.10
34989;DHT22;21192;40.182;44.516;2024-03-08T07:48:15;14.30;61.80
34989;DHT22;21192;40.182;44.516;2024-03-08T07:50:42;14.00;61.70
34989;DHT22;21192;40.182;44.516;2024-03-08T07:53:08;13.60;61.90
34989;DHT22;21192;40.182;44.516;2024-03-08T07:55:34;13.60;61.80
34989;DHT22;21192;40.182;44.516;2024-03-08T07:58:04;13.80;61.70
34989;DHT22;21192;40.182;44.516;2024-03-08T08:00:30;14.00;60.80
34989;DHT22;21192;40.182;44.516;2024-03-08T08:02:59;14.20;59.80
34989;DHT22;21192;40.182;44.516;2024-03-08T08:05:25;14.30;58.40
34989;DHT22;21192;40.182;44.516;2024-03-08T08:07:51;14.00;56.70
34989;DHT22;21192;40.182;44.516;2024-03-08T08:10:18;13.90;56.60
34989;DHT22;21192;40.182;44.516;2024-03-08T08:12:50;13.90;56.30
34989;DHT22;21192;40.182;44.516;2024-03-08T08:15:19;13.80;56.00
34989;DHT22;21192;40.182;44.516;2024-03-08T08:17:45;13.80;55.30
34989;DHT22;21192;40.182;44.516;2024-03-08T08:20:13;13.90;55.20
34989;DHT22;21192;40.182;44.516;2024-03-08T08:22:42;14.10;54.50
34989;DHT22;21192;40.182;44.516;2024-03-08T08:25:11;13.90;53.80
34989;DHT22;21192;40.182;44.516;2024-03-08T08:27:38;13.90;54.10
34989;DHT22;21192;40.182;44.516;2024-03-08T08:30:11;13.90;54.30
34989;DHT22;21192;40.182;44.516;2024-03-08T08:32:37;13.80;54.70
34989;DHT22;21192;40.182;44.516;2024-03-08T08:35:05;13.40;55.40
34989;DHT22;21192;40.182;44.516;2024-03-08T08:37:32;13.10;56.60
34989;DHT22;21192;40.182;44.516;2024-03-08T08:39:59;12.80;57.40
34989;DHT22;21192;40.182;44.516;2024-03-08T08:42:31;12.70;57.00
34989;DHT22;21192;40.182;44.516;2024-03-08T08:44:57;12.60;57.00
34989;DHT22;21192;40.182;44.516;2024-03-08T08:47:23;12.80;57.10
34989;DHT22;21192;40.182;44.516;2024-03-08T08:49:50;12.70;57.00
34989;DHT22;21192;40.182;44.516;2024-03-08T08:52:16;12.80;56.90
34989;DHT22;21192;40.182;44.516;2024-03-08T08:54:43;12.80;56.20
34989;DHT22;21192;40.182;44.516;2024-03-08T08:57:10;12.80;57.10
34989;DHT22;21192;40.182;44.516;2024-03-08T08:59:36;13.00;55.70
34989;DHT22;21192;40.182;44.516;2024-03-08T09:02:06;13.00;54.70
34989;DHT22;21192;40.182;44.516;2024-03-08T09:04:32;13.10;53.60
34989;DHT22;21192;40.182;44.516;2024-03-08T09:06:58;13.00;53.10
34989;DHT22;21192;40.182;44.516;2024-03-08T09:09:24;13.10;53.00
34989;DHT22;21192;40.182;44.516;2024-03-08T09:11:51;13.20;52.50
34989;DHT22;21192;40.182;44.516;2024-03-08T09:14:19;13.30;51.60
34989;DHT22;21192;40.182;44.516;2024-03-08T09:16:46;13.30;51.20
34989;DHT22;21192;40.182;44.516;2024-03-08T09:19:13;13.00;51.00
34989;DHT22;21192;40.182;44.516;2024-03-08T09:21:39;13.10;51.40
34989;DHT22;21192;40.182;44.516;2024-03-08T09:24:06;13.20;51.30
34989;DHT22;21192;40.182;44.516;2024-03-08T09:26:35;13.30;50.90
34989;DHT22;21192;40.182;44.516;2024-03-08T09:29:01;13.20;50.30
34989;DHT22;21192;40.182;44.516;2024-03-08T09:31:27;13.40;50.10
34989;DHT22;21192;40.182;44.516;2024-03-08T09:33:52;13.20;50.00
34989;DHT22;21192;40.182;44.516;2024-03-08T09:36:18;13.10;50.50
34989;DHT22;21192;40.182;44.516;2024-03-08T09:38:44;13.00;51.00
34989;DHT22;21192;40.182;44.516;2024-03-08T09:41:10;13.00;51.40
34989;DHT22;21192;40.182;44.516;2024-03-08T09:43:36;13.10;51.40
34989;DHT22;21192;40.182;44.516;2024-03-08T09:46:04;13.20;51.50
34989;DHT22;21192;40.182;44.516;2024-03-08T09:48:34;13.20;51.60
34989;DHT22;21192;40.182;44.516;2024-03-08T09:51:00;13.30;52.00
34989;DHT22;21192;40.182;44.516;2024-03-08T09:53:26;13.20;51.70
34989;DHT22;21192;40.182;44.516;2024-03-08T09:55:52;13.30;51.90
34989;DHT22;21192;40.182;44.516;2024-03-08T09:58:19;13.50;51.30
34989;DHT22;21192;40.182;44.516;2024-03-08T10:00:45;13.50;50.40
34989;DHT22;21192;40.182;44.516;2024-03-08T10:03:10;13.30;50.00
34989;DHT22;21192;40.182;44.516;2024-03-08T10:05:37;13.20;49.90
34989;DHT22;21192;40.182;44.516;2024-03-08T10:08:03;13.30;49.60
34989;DHT22;21192;40.182;44.516;2024-03-08T10:10:30;13.20;49.60
34989;DHT22;21192;40.182;44.516;2024-03-08T10:12:56;13.20;50.20
34989;DHT22;21192;40.182;44.516;2024-03-08T10:15:22;13.20;50.50
34989;DHT22;21192;40.182;44.516;2024-03-08T10:17:49;13.10;50.10
34989;DHT22;21192;40.182;44.516;2024-03-08T10:20:18;13.20;50.30
34989;DHT22;21192;40.182;44.516;2024-03-08T10:22:45;13.20;50.70
34989;DHT22;21192;40.182;44.516;2024-03-08T10:25:11;13.40;49.10
34989;DHT22;21192;40.182;44.516;2024-03-08T10:27:41;13.50;49.00
34989;DHT22;21192;40.182;44.516;2024-03-08T10:30:10;13.40;49.60
34989;DHT22;21192;40.182;44.516;2024-03-08T10:32:38;13.40;50.30
34989;DHT22;21192;40.182;44.516;2024-03-08T10:35:07;13.50;50.60
34989;DHT22;21192;40.182;44.516;2024-03-08T10:37:43;13.60;50.30
34989;DHT22;21192;40.182;44.516;2024-03-08T10:40:19;13.80;50.10
34989;DHT22;21192;40.182;44.516;2024-03-08T10:42:56;13.80;50.10
34989;DHT22;21192;40.182;44.516;2024-03-08T10:45:35;13.80;50.40
34989;DHT22;21192;40.182;44.516;2024-03-08T10:50:54;13.80;50.30
34989;DHT22;21192;40.182;44.516;2024-03-08T10:53:23;13.90;50.20
34989;DHT22;21192;40.182;44.516;2024-03-08T10:55:50;13.80;49.90
34989;DHT22;21192;40.182;44.516;2024-03-08T10:58:21;13.90;49.90
34989;DHT22;21192;40.182;44.516;2024-03-08T11:00:48;14.00;49.90
34989;DHT22;21192;40.182;44.516;2024-03-08T11:06:09;14.20;48.90
34989;DHT22;21192;40.182;44.516;2024-03-08T11:08:41;14.20;48.30
34989;DHT22;21192;40.182;44.516;2024-03-08T11:14:01;14.20;48.30
34989;DHT22;21192;40.182;44.516;2024-03-08T11:19:24;14.20;48.00
34989;DHT22;21192;40.182;44.516;2024-03-08T11:22:00;14.30;47.80
34989;DHT22;21192;40.182;44.516;2024-03-08T11:24:26;14.40;47.50
34989;DHT22;21192;40.182;44.516;2024-03-08T11:27:03;14.30;47.50
34989;DHT22;21192;40.182;44.516;2024-03-08T11:32:05;14.50;47.60
34989;DHT22;21192;40.182;44.516;2024-03-08T11:34:32;14.40;47.50
34989;DHT22;21192;40.182;44.516;2024-03-08T11:37:03;14.50;47.80
34989;DHT22;21192;40.182;44.516;2024-03-08T11:39:29;14.40;47.70
34989;DHT22;21192;40.182;44.516;2024-03-08T11:41:56;14.20;47.30
34989;DHT22;21192;40.182;44.516;2024-03-08T11:44:27;14.20;47.60
34989;DHT22;21192;40.182;44.516;2024-03-08T11:46:53;14.30;47.70
34989;DHT22;21192;40.182;44.516;2024-03-08T11:49:19;14.10;47.80
34989;DHT22;21192;40.182;44.516;2024-03-08T11:51:46;14.20;48.00
34989;DHT22;21192;40.182;44.516;2024-03-08T11:54:13;14.20;48.00
34989;DHT22;21192;40.182;44.516;2024-03-08T11:56:39;14.20;47.90
34989;DHT22;21192;40.182;44.516;2024-03-08T11:59:11;14.10;47.70
34989;DHT22;21192;40.182;44.516;2024-03-08T12:01:38;14.00;47.80
34989;DHT22;21192;40.182;44.516;2024-03-08T12:04:04;14.10;47.90
34989;DHT22;21192;40.182;44.516;2024-03-08T12:06:39;13.90;48.30
34989;DHT22;21192;40.182;44.516;2024-03-08T12:09:09;13.80;48.10
34989;DHT22;21192;40.182;44.516;2024-03-08T12:11:36;13.80;48.20
34989;DHT22;21192;40.182;44.516;2024-03-08T12:14:06;13.90;48.20
34989;DHT22;21192;40.182;44.516;2024-03-08T12:16:32;14.00;48.20
34989;DHT22;21192;40.182;44.516;2024-03-08T12:19:00;14.00;47.80
34989;DHT22;21192;40.182;44.516;2024-03-08T12:21:26;14.00;47.70
34989;DHT22;21192;40.182;44.516;2024-03-08T12:24:07;14.00;47.80
34989;DHT22;21192;40.182;44.516;2024-03-08T12:26:39;13.90;48.10
34989;DHT22;21192;40.182;44.516;2024-03-08T12:29:22;13.80;48.20
34989;DHT22;21192;40.182;44.516;2024-03-08T12:31:59;13.70;48.20
34989;DHT22;21192;40.182;44.516;2024-03-08T12:34:30;13.90;47.80
34989;DHT22;21192;40.182;44.516;2024-03-08T12:36:58;14.00;47.50
34989;DHT22;21192;40.182;44.516;2024-03-08T12:39:24;13.90;47.50
34989;DHT22;21192;40.182;44.516;2024-03-08T12:41:53;14.00;47.70
34989;DHT22;21192;40.182;44.516;2024-03-08T12:44:20;14.00;47.70
34989;DHT22;21192;40.182;44.516;2024-03-08T12:46:50;14.00;47.80
34989;DHT22;21192;40.182;44.516;2024-03-08T12:49:17;14.00;47.70
34989;DHT22;21192;40.182;44.516;2024-03-08T12:51:44;14.00;47.40
34989;DHT22;21192;40.182;44.516;2024-03-08T12:54:10;14.00;47.30
34989;DHT22;21192;40.182;44.516;2024-03-08T12:56:37;14.00;47.20
34989;DHT22;21192;40.182;44.516;2024-03-08T12:59:13;13.80;47.40
34989;DHT22;21192;40.182;44.516;2024-03-08T13:01:39;13.90;47.80
34989;DHT22;21192;40.182;44.516;2024-03-08T13:04:05;14.00;47.90
34989;DHT22;21192;40.182;44.516;2024-03-08T13:06:32;14.00;48.00
34989;DHT22;21192;40.182;44.516;2024-03-08T13:08:58;14.10;48.10
34989;DHT22;21192;40.182;44.516;2024-03-08T13:11:26;14.00;48.10
34989;DHT22;21192;40.182;44.516;2024-03-08T13:13:55;14.00;48.20
34989;DHT22;21192;40.182;44.516;2024-03-08T13:16:21;14.10;48.10
34989;DHT22;21192;40.182;44.516;2024-03-08T13:18:47;14.10;48.10
34989;DHT22;21192;40.182;44.516;2024-03-08T13:21:15;14.10;48.10
34989;DHT22;21192;40.182;44.516;2024-03-08T13:23:44;14.20;47.90
34989;DHT22;21192;40.182;44.516;2024-03-08T13:26:15;14.40;47.40
34989;DHT22;21192;40.182;44.516;2024-03-08T13:28:43;14.40;46.60
34989;DHT22;21192;40.182;44.516;2024-03-08T13:31:09;14.50;46.20
34989;DHT22;21192;40.182;44.516;2024-03-08T13:33:38;14.50;46.30
34989;DHT22;21192;40.182;44.516;2024-03-08T13:36:11;14.40;46.50
34989;DHT22;21192;40.182;44.516;2024-03-08T13:38:48;14.30;47.00
34989;DHT22;21192;40.182;44.516;2024-03-08T13:41:16;14.20;47.60
34989;DHT22;21192;40.182;44.516;2024-03-08T13:43:46;14.20;47.80
34989;DHT22;21192;40.182;44.516;2024-03-08T13:46:15;14.20;48.20
34989;DHT22;21192;40.182;44.516;2024-03-08T13:48:41;14.10;48.30
34989;DHT22;21192;40.182;44.516;2024-03-08T13:51:07;13.90;48.40
34989;DHT22;21192;40.182;44.516;2024-03-08T13:53:36;13.90;48.50
34989;DHT22;21192;40.182;44.516;2024-03-08T13:56:02;13.80;48.40
34989;DHT22;21192;40.182;44.516;2024-03-08T13:58:29;13.70;48.40
34989;DHT22;21192;40.182;44.516;2024-03-08T14:00:55;13.60;48.60
34989;DHT22;21192;40.182;44.516;2024-03-08T14:03:21;13.60;48.60
34989;DHT22;21192;40.182;44.516;2024-03-08T14:05:47;13.50;48.70
34989;DHT22;21192;40.182;44.516;2024-03-08T14:08:13;13.60;48.60
34989;DHT22;21192;40.182;44.516;2024-03-08T14:10:39;13.60;48.20
34989;DHT22;21192;40.182;44.516;2024-03-08T14:13:06;13.60;48.30
34989;DHT22;21192;40.182;44.516;2024-03-08T14:15:33;13.60;48.50
34989;DHT22;21192;40.182;44.516;2024-03-08T14:18:00;13.50;48.70
34989;DHT22;21192;40.182;44.516;2024-03-08T14:20:27;13.40;49.10
34989;DHT22;21192;40.182;44.516;2024-03-08T14:22:54;13.20;49.40
34989;DHT22;21192;40.182;44.516;2024-03-08T14:25:25;13.10;49.70
34989;DHT22;21192;40.182;44.516;2024-03-08T14:27:54;13.10;50.00
34989;DHT22;21192;40.182;44.516;2024-03-08T14:30:23;13.20;50.00
34989;DHT22;21192;40.182;44.516;2024-03-08T14:33:04;13.20;49.80
34989;DHT22;21192;40.182;44.516;2024-03-08T14:35:40;13.10;49.90
34989;DHT22;21192;40.182;44.516;2024-03-08T14:38:06;13.00;50.10
34989;DHT22;21192;40.182;44.516;2024-03-08T14:40:37;12.90;50.50
34989;DHT22;21192;40.182;44.516;2024-03-08T14:43:03;12.90;50.80
34989;DHT22;21192;40.182;44.516;2024-03-08T14:45:32;12.80;51.10
34989;DHT22;21192;40.182;44.516;2024-03-08T14:47:59;12.80;51.30
34989;DHT22;21192;40.182;44.516;2024-03-08T14:50:25;12.80;51.50
34989;DHT22;21192;40.182;44.516;2024-03-08T14:52:54;12.70;51.70
34989;DHT22;21192;40.182;44.516;2024-03-08T14:55:21;12.70;51.90
34989;DHT22;21192;40.182;44.516;2024-03-08T14:57:51;12.70;52.00
34989;DHT22;21192;40.182;44.516;2024-03-08T15:00:19;12.80;52.10
34989;DHT22;21192;40.182;44.516;2024-03-08T15:03:05;12.80;52.30
34989;DHT22;21192;40.182;44.516;2024-03-08T15:05:35;12.70;52.40
34989;DHT22;21192;40.182;44.516;2024-03-08T15:08:07;12.70;52.50
34989;DHT22;21192;40.182;44.516;2024-03-08T15:10:36;12.70;52.50
34989;DHT22;21192;40.182;44.516;2024-03-08T15:13:05;12.60;52.50
34989;DHT22;21192;40.182;44.516;2024-03-08T15:15:40;12.70;52.50
34989;DHT22;21192;40.182;44.516;2024-03-08T15:18:08;12.70;52.60
34989;DHT22;21192;40.182;44.516;2024-03-08T15:20:35;12.70;52.60
34989;DHT22;21192;40.182;44.516;2024-03-08T15:23:01;12.70;52.70
34989;DHT22;21192;40.182;44.516;2024-03-08T15:25:30;12.70;52.80
34989;DHT22;21192;40.182;44.516;2024-03-08T15:27:57;12.60;52.90
34989;DHT22;21192;40.182;44.516;2024-03-08T15:30:24;12.50;53.20
34989;DHT22;21192;40.182;44.516;2024-03-08T15:32:54;12.50;53.30
34989;DHT22;21192;40.182;44.516;2024-03-08T15:35:25;12.50;53.30